Time;durP1;ratioP1;P1;durP2;ratioP2;P2;SDS_P1;SDS_P2;PMS_P1;PMS_P2;Temp;Humidity;BMP_temperature;BMP_pressure;BME280_temperature;BME280_humidity;BME280_pressure;Samples;Min_cycle;Max_cycle;Signal;HPM_P1;HPM_P2
2023/05/05 00:01:43;;;;;;;2.60;1.25;;;;;;;;;;5036536;28;20077;-70
2023/05/05 00:04:11;;;;;;;0.90;0.65;;;;;;;;;;5039239;28;20179;-69
2023/05/05 00:06:39;;;;;;;2.78;0.90;;;;;;;;;;5039916;28;20183;-70
2023/05/05 00:09:08;;;;;;;2.58;0.90;;;;;;;;;;5037767;28;20047;-70
2023/05/05 00:11:36;;;;;;;1.80;1.15;;;;;;;;;;5039780;28;20501;-70
2023/05/05 00:14:06;;;;;;;2.65;0.98;;;;;;;;;;5039471;28;20174;-69
2023/05/05 00:16:34;;;;;;;4.78;1.23;;;;;;;;;;5040169;28;20086;-69
2023/05/05 00:19:03;;;;;;;1.38;0.93;;;;;;;;;;5044921;28;20044;-69
2023/05/05 00:21:31;;;;;;;1.10;0.60;;;;;;;;;;5047496;28;20446;-69
2023/05/05 00:23:59;;;;;;;2.20;0.70;;;;;;;;;;5048030;28;20522;-68
2023/05/05 00:26:28;;;;;;;1.45;0.88;;;;;;;;;;5045420;28;20065;-69
2023/05/05 00:28:56;;;;;;;1.23;0.80;;;;;;;;;;5042957;28;20047;-69
2023/05/05 00:31:26;;;;;;;3.50;1.02;;;;;;;;;;5045991;28;20507;-69
2023/05/05 00:33:55;;;;;;;1.83;0.77;;;;;;;;;;5040754;28;20045;-68
2023/05/05 00:36:23;;;;;;;1.60;1.25;;;;;;;;;;5048215;28;20520;-69
2023/05/05 00:38:51;;;;;;;2.25;1.00;;;;;;;;;;5046240;28;20045;-69
2023/05/05 00:41:20;;;;;;;3.92;1.30;;;;;;;;;;5046933;28;20049;-69
2023/05/05 00:43:48;;;;;;;1.75;1.65;;;;;;;;;;5043929;28;20094;-69
2023/05/05 00:46:23;;;;;;;1.67;0.77;;;;;;;;;;5045874;28;20040;-69
2023/05/05 00:48:53;;;;;;;3.10;0.90;;;;;;;;;;5044820;28;20103;-69
2023/05/05 00:51:22;;;;;;;1.05;0.70;;;;;;;;;;5047743;28;20148;-68
2023/05/05 00:53:50;;;;;;;2.40;0.93;;;;;;;;;;5042886;28;20489;-69
2023/05/05 00:56:20;;;;;;;0.77;0.70;;;;;;;;;;5045450;28;20139;-69
2023/05/05 00:58:49;;;;;;;5.13;1.10;;;;;;;;;;5043924;28;20043;-69
2023/05/05 01:01:18;;;;;;;6.20;0.80;;;;;;;;;;5047030;28;20133;-69
2023/05/05 01:03:46;;;;;;;3.58;1.63;;;;;;;;;;5067787;23;20057;-64
2023/05/05 01:06:23;;;;;;;3.25;0.70;;;;;;;;;;5057883;28;20128;-64
2023/05/05 01:09:04;;;;;;;1.05;0.90;;;;;;;;;;5058813;28;20438;-63
2023/05/05 01:11:35;;;;;;;1.50;0.80;;;;;;;;;;5058194;28;20052;-64
2023/05/05 01:14:10;;;;;;;1.00;0.60;;;;;;;;;;5058929;28;20128;-63
2023/05/05 01:16:40;;;;;;;2.28;0.98;;;;;;;;;;5057879;28;20060;-63
2023/05/05 01:19:15;;;;;;;0.77;0.47;;;;;;;;;;5058171;28;20079;-63
2023/05/05 01:21:50;;;;;;;2.67;0.55;;;;;;;;;;5058486;28;20065;-65
2023/05/05 01:24:39;;;;;;;1.77;0.90;;;;;;;;;;5058551;28;20067;-65
2023/05/05 01:27:18;;;;;;;3.80;1.00;;;;;;;;;;5057452;28;20055;-63
2023/05/05 01:30:02;;;;;;;1.60;1.35;;;;;;;;;;5054946;28;20098;-66
2023/05/05 01:32:34;;;;;;;2.38;0.88;;;;;;;;;;5048651;28;20406;-66
2023/05/05 01:35:03;;;;;;;1.10;0.93;;;;;;;;;;5038756;28;20045;-65
2023/05/05 01:37:34;;;;;;;1.83;1.05;;;;;;;;;;5041931;28;20037;-63
2023/05/05 01:40:05;;;;;;;1.10;0.90;;;;;;;;;;5045863;28;20053;-66
2023/05/05 01:42:36;;;;;;;6.18;2.45;;;;;;;;;;5044884;28;20664;-66
2023/05/05 01:45:05;;;;;;;1.70;1.00;;;;;;;;;;5039968;28;20642;-65
2023/05/05 01:47:36;;;;;;;1.35;0.82;;;;;;;;;;5041916;28;20151;-63
2023/05/05 01:50:06;;;;;;;4.10;1.00;;;;;;;;;;5038481;28;20077;-66
2023/05/05 01:52:36;;;;;;;0.98;0.63;;;;;;;;;;5042795;28;20059;-65
2023/05/05 01:55:06;;;;;;;4.53;1.35;;;;;;;;;;5039953;28;20059;-63
2023/05/05 01:57:35;;;;;;;0.70;0.50;;;;;;;;;;5044808;28;20075;-64
2023/05/05 02:00:04;;;;;;;2.55;0.85;;;;;;;;;;5041184;28;20621;-64
2023/05/05 02:02:35;;;;;;;2.03;1.00;;;;;;;;;;5041405;28;20118;-65
2023/05/05 02:05:05;;;;;;;0.82;0.60;;;;;;;;;;5036195;28;20188;-65
2023/05/05 02:07:34;;;;;;;1.98;0.63;;;;;;;;;;5041344;28;20505;-63
2023/05/05 02:10:02;;;;;;;1.17;0.70;;;;;;;;;;5040775;28;20045;-65
2023/05/05 02:12:32;;;;;;;4.28;1.30;;;;;;;;;;5039033;28;20059;-66
2023/05/05 02:15:00;;;;;;;2.35;1.15;;;;;;;;;;5042462;28;20095;-64
2023/05/05 02:17:29;;;;;;;1.55;1.13;;;;;;;;;;5040160;28;20037;-65
2023/05/05 02:20:01;;;;;;;1.38;1.00;;;;;;;;;;5042704;28;20507;-64
2023/05/05 02:22:30;;;;;;;0.73;0.70;;;;;;;;;;5035259;28;20047;-65
2023/05/05 02:24:59;;;;;;;1.83;1.00;;;;;;;;;;5039788;28;20061;-65
2023/05/05 02:27:27;;;;;;;2.40;1.00;;;;;;;;;;5044629;28;20616;-66
2023/05/05 02:29:59;;;;;;;1.42;1.08;;;;;;;;;;5038134;28;20055;-65
2023/05/05 02:32:28;;;;;;;1.50;0.82;;;;;;;;;;5042623;28;20086;-63
2023/05/05 02:34:59;;;;;;;1.20;0.95;;;;;;;;;;5045790;28;20098;-63
2023/05/05 02:37:30;;;;;;;1.75;1.20;;;;;;;;;;5039735;28;20067;-65
2023/05/05 02:40:00;;;;;;;1.40;0.88;;;;;;;;;;5041430;28;20079;-66
2023/05/05 02:42:30;;;;;;;1.40;0.82;;;;;;;;;;5042192;28;20128;-65
2023/05/05 02:44:59;;;;;;;1.88;0.70;;;;;;;;;;5041427;28;20045;-66
2023/05/05 02:47:35;;;;;;;1.30;0.52;;;;;;;;;;5039200;28;20060;-66
2023/05/05 02:50:04;;;;;;;2.00;1.10;;;;;;;;;;5045117;28;20110;-64
2023/05/05 02:52:34;;;;;;;2.95;1.48;;;;;;;;;;5040318;28;20387;-66
2023/05/05 02:55:03;;;;;;;4.55;1.73;;;;;;;;;;5045005;28;20055;-65
2023/05/05 02:57:36;;;;;;;1.67;0.80;;;;;;;;;;5040254;28;20059;-66
2023/05/05 03:00:08;;;;;;;1.63;0.90;;;;;;;;;;5042056;28;20049;-66
2023/05/05 03:02:41;;;;;;;1.02;1.00;;;;;;;;;;5038186;28;20059;-64
2023/05/05 03:05:12;;;;;;;3.67;1.50;;;;;;;;;;5039761;28;20595;-66
2023/05/05 03:07:43;;;;;;;2.03;1.30;;;;;;;;;;5038824;28;20379;-66
2023/05/05 03:10:14;;;;;;;1.35;0.70;;;;;;;;;;5040637;28;20170;-65
2023/05/05 03:12:45;;;;;;;1.13;0.65;;;;;;;;;;5045887;28;20045;-66
2023/05/05 03:15:14;;;;;;;3.33;1.02;;;;;;;;;;5042062;28;20657;-66
2023/05/05 03:17:45;;;;;;;1.10;0.60;;;;;;;;;;5041489;28;20420;-66
2023/05/05 03:20:15;;;;;;;0.90;0.70;;;;;;;;;;5041184;28;20045;-63
2023/05/05 03:22:44;;;;;;;2.33;1.13;;;;;;;;;;5042115;28;20044;-65
2023/05/05 03:25:13;;;;;;;2.47;1.20;;;;;;;;;;5043003;28;20144;-66
2023/05/05 03:27:41;;;;;;;1.90;1.08;;;;;;;;;;5039106;28;20414;-67
2023/05/05 03:30:10;;;;;;;2.55;1.52;;;;;;;;;;5041144;28;20049;-66
2023/05/05 03:32:38;;;;;;;1.52;0.77;;;;;;;;;;5040798;28;20072;-64
2023/05/05 03:35:07;;;;;;;2.80;1.20;;;;;;;;;;5043803;28;20137;-65
2023/05/05 03:37:35;;;;;;;1.52;0.80;;;;;;;;;;5040413;28;20041;-65
2023/05/05 03:40:05;;;;;;;2.58;1.05;;;;;;;;;;5037958;28;20110;-65
2023/05/05 03:42:34;;;;;;;2.50;1.20;;;;;;;;;;5039880;28;20427;-66
2023/05/05 03:45:02;;;;;;;7.93;1.40;;;;;;;;;;5042740;28;20413;-65
2023/05/05 03:47:30;;;;;;;2.38;0.88;;;;;;;;;;5039961;28;20304;-63
2023/05/05 03:49:59;;;;;;;1.83;0.75;;;;;;;;;;5037867;28;20049;-64
2023/05/05 03:52:27;;;;;;;6.85;1.30;;;;;;;;;;5042638;28;20048;-66
2023/05/05 03:54:56;;;;;;;3.47;1.48;;;;;;;;;;5041761;28;20045;-66
2023/05/05 03:57:26;;;;;;;2.30;1.48;;;;;;;;;;5038805;28;20329;-65
2023/05/05 03:59:54;;;;;;;1.95;0.98;;;;;;;;;;5045504;28;20051;-66
2023/05/05 04:02:23;;;;;;;3.15;1.13;;;;;;;;;;5043250;28;20057;-65
2023/05/05 04:04:51;;;;;;;1.05;0.73;;;;;;;;;;5038455;28;20052;-65
2023/05/05 04:07:21;;;;;;;9.30;0.98;;;;;;;;;;5035137;28;20048;-65
2023/05/05 04:09:49;;;;;;;3.28;0.98;;;;;;;;;;5034120;28;20124;-65
2023/05/05 04:12:18;;;;;;;2.60;0.98;;;;;;;;;;5042906;28;20055;-65
2023/05/05 04:14:51;;;;;;;1.95;0.95;;;;;;;;;;5042698;28;20044;-65
2023/05/05 04:17:19;;;;;;;2.67;1.30;;;;;;;;;;5040834;28;20048;-65
2023/05/05 04:19:47;;;;;;;1.10;1.02;;;;;;;;;;5042677;28;20044;-66
2023/05/05 04:22:15;;;;;;;1.13;0.63;;;;;;;;;;5045333;28;20055;-64
2023/05/05 04:24:44;;;;;;;1.02;1.02;;;;;;;;;;5036252;28;20266;-63
2023/05/05 04:27:12;;;;;;;1.75;0.90;;;;;;;;;;5043923;28;20420;-66
2023/05/05 04:29:40;;;;;;;2.53;1.42;;;;;;;;;;5041344;28;20048;-65
2023/05/05 04:32:10;;;;;;;2.58;1.27;;;;;;;;;;5035748;28;20057;-66
2023/05/05 04:34:38;;;;;;;1.38;0.90;;;;;;;;;;5044259;28;20067;-65
2023/05/05 04:37:07;;;;;;;4.03;1.50;;;;;;;;;;5042341;28;20055;-65
2023/05/05 04:39:35;;;;;;;2.47;1.42;;;;;;;;;;5038972;28;20076;-65
2023/05/05 04:42:04;;;;;;;1.95;0.90;;;;;;;;;;5040100;28;20049;-64
2023/05/05 04:44:32;;;;;;;2.15;1.10;;;;;;;;;;5034531;28;20045;-66
2023/05/05 04:47:00;;;;;;;0.52;0.50;;;;;;;;;;5038899;28;20053;-66
2023/05/05 04:49:31;;;;;;;3.00;1.30;;;;;;;;;;5039627;28;20049;-65
2023/05/05 04:51:59;;;;;;;3.15;1.40;;;;;;;;;;5039715;28;20081;-65
2023/05/05 04:54:27;;;;;;;1.63;0.80;;;;;;;;;;5034773;28;20041;-65
2023/05/05 04:56:56;;;;;;;1.42;0.85;;;;;;;;;;5038694;28;20052;-65
2023/05/05 04:59:24;;;;;;;1.98;1.10;;;;;;;;;;5039177;28;20068;-63
2023/05/05 05:01:52;;;;;;;2.70;0.80;;;;;;;;;;5039190;28;20060;-65
2023/05/05 05:04:21;;;;;;;8.75;0.93;;;;;;;;;;5045068;28;20842;-65
2023/05/05 05:06:50;;;;;;;1.25;0.95;;;;;;;;;;5046444;28;20395;-65
2023/05/05 05:09:19;;;;;;;4.65;1.25;;;;;;;;;;5047385;28;20052;-66
2023/05/05 05:11:47;;;;;;;4.85;1.30;;;;;;;;;;5046060;28;20045;-66
2023/05/05 05:14:16;;;;;;;4.45;1.20;;;;;;;;;;5043901;28;20048;-63
2023/05/05 05:16:44;;;;;;;3.35;1.20;;;;;;;;;;5040570;28;20128;-65
2023/05/05 05:19:12;;;;;;;1.00;0.75;;;;;;;;;;5042785;28;20052;-66
2023/05/05 05:21:41;;;;;;;2.55;1.08;;;;;;;;;;5045154;28;20105;-64
2023/05/05 05:24:10;;;;;;;2.22;1.20;;;;;;;;;;5043970;28;20506;-65
2023/05/05 05:26:39;;;;;;;1.63;0.98;;;;;;;;;;5045100;28;20048;-65
2023/05/05 05:29:07;;;;;;;1.98;1.10;;;;;;;;;;5039849;28;20041;-65
2023/05/05 05:31:36;;;;;;;3.00;1.08;;;;;;;;;;5042205;28;20040;-65
2023/05/05 05:34:04;;;;;;;5.40;1.17;;;;;;;;;;5043742;28;20451;-65
2023/05/05 05:36:32;;;;;;;1.70;0.77;;;;;;;;;;5043509;28;20501;-65
2023/05/05 05:39:01;;;;;;;2.75;1.23;;;;;;;;;;5042065;28;20048;-66
2023/05/05 05:41:30;;;;;;;3.65;1.38;;;;;;;;;;5040862;28;20414;-65
2023/05/05 05:43:59;;;;;;;1.95;1.13;;;;;;;;;;5040834;28;20045;-64
2023/05/05 05:46:27;;;;;;;9.30;1.58;;;;;;;;;;5043762;28;20422;-64
2023/05/05 05:48:56;;;;;;;5.10;1.40;;;;;;;;;;5041071;28;20502;-66
2023/05/05 05:51:24;;;;;;;0.52;0.50;;;;;;;;;;5042607;28;20037;-66
2023/05/05 05:53:52;;;;;;;2.15;1.00;;;;;;;;;;5044019;28;20033;-64
2023/05/05 05:56:21;;;;;;;2.20;1.20;;;;;;;;;;5046047;28;20105;-63
2023/05/05 05:58:51;;;;;;;2.47;1.73;;;;;;;;;;5045584;28;20408;-65
2023/05/05 06:01:19;;;;;;;3.05;1.30;;;;;;;;;;5047420;28;20045;-66
2023/05/05 06:03:48;;;;;;;3.88;0.98;;;;;;;;;;5043389;28;20522;-64
2023/05/05 06:06:16;;;;;;;1.65;1.02;;;;;;;;;;5045489;28;20045;-65
2023/05/05 06:08:44;;;;;;;3.08;1.20;;;;;;;;;;5041792;28;20045;-65
2023/05/05 06:11:13;;;;;;;2.75;1.70;;;;;;;;;;5046113;28;20132;-67
2023/05/05 06:13:41;;;;;;;3.45;1.38;;;;;;;;;;5046729;28;20440;-66
2023/05/05 06:16:11;;;;;;;3.50;1.48;;;;;;;;;;5045043;28;20433;-65
2023/05/05 06:18:39;;;;;;;4.43;1.63;;;;;;;;;;5043318;28;20041;-66
2023/05/05 06:21:08;;;;;;;3.10;1.75;;;;;;;;;;5046699;28;20053;-67
2023/05/05 06:23:36;;;;;;;9.45;1.50;;;;;;;;;;5046488;28;20147;-66
2023/05/05 06:26:04;;;;;;;2.80;1.27;;;;;;;;;;5040417;28;20072;-65
2023/05/05 06:28:33;;;;;;;2.60;1.23;;;;;;;;;;5044752;28;20041;-65
2023/05/05 06:31:01;;;;;;;3.88;1.30;;;;;;;;;;5044086;28;20410;-65
2023/05/05 06:33:31;;;;;;;2.22;1.30;;;;;;;;;;5045300;28;20048;-66
2023/05/05 06:35:59;;;;;;;2.35;1.48;;;;;;;;;;5046409;28;20494;-66
2023/05/05 06:38:28;;;;;;;7.05;1.25;;;;;;;;;;5042075;28;20044;-66
2023/05/05 06:40:57;;;;;;;3.08;1.33;;;;;;;;;;5046844;28;20143;-65
2023/05/05 06:43:25;;;;;;;5.72;1.63;;;;;;;;;;5042312;28;20080;-65
2023/05/05 06:45:54;;;;;;;2.38;0.90;;;;;;;;;;5046411;28;20052;-65
2023/05/05 06:48:22;;;;;;;1.88;1.10;;;;;;;;;;5043398;28;20048;-65
2023/05/05 06:50:52;;;;;;;2.00;1.17;;;;;;;;;;5041285;28;20395;-65
2023/05/05 06:53:20;;;;;;;1.60;1.20;;;;;;;;;;5043623;28;20056;-65
2023/05/05 06:55:48;;;;;;;2.17;0.90;;;;;;;;;;5045960;28;20399;-65
2023/05/05 06:58:17;;;;;;;1.67;1.20;;;;;;;;;;5039711;28;20531;-65
2023/05/05 07:00:45;;;;;;;3.05;1.98;;;;;;;;;;5044256;28;20057;-64
2023/05/05 07:03:14;;;;;;;3.38;1.27;;;;;;;;;;5040150;28;20143;-65
2023/05/05 07:05:42;;;;;;;1.48;0.77;;;;;;;;;;5039297;28;20462;-64
2023/05/05 07:08:12;;;;;;;5.45;0.90;;;;;;;;;;5044032;28;20658;-65
2023/05/05 07:10:40;;;;;;;2.60;1.27;;;;;;;;;;5044816;28;20053;-66
2023/05/05 07:13:09;;;;;;;2.20;1.02;;;;;;;;;;5043725;28;20060;-65
2023/05/05 07:15:37;;;;;;;1.52;1.02;;;;;;;;;;5042603;28;20057;-65
2023/05/05 07:18:05;;;;;;;4.57;1.42;;;;;;;;;;5040414;28;20046;-64
2023/05/05 07:20:34;;;;;;;1.63;0.85;;;;;;;;;;5044255;28;20055;-65
2023/05/05 07:23:02;;;;;;;2.22;1.50;;;;;;;;;;5043919;28;20412;-66
2023/05/05 07:25:32;;;;;;;1.42;0.82;;;;;;;;;;5042784;28;20135;-65
2023/05/05 07:28:00;;;;;;;3.72;1.63;;;;;;;;;;5046201;28;20055;-66
2023/05/05 07:30:29;;;;;;;2.13;1.40;;;;;;;;;;5044352;28;20044;-66
2023/05/05 07:32:57;;;;;;;2.20;1.00;;;;;;;;;;5041360;28;20424;-66
2023/05/05 07:35:26;;;;;;;2.67;0.85;;;;;;;;;;5041147;28;20049;-65
2023/05/05 07:37:54;;;;;;;1.58;1.05;;;;;;;;;;5043796;28;20087;-66
2023/05/05 07:40:23;;;;;;;3.58;1.10;;;;;;;;;;5045056;28;20079;-64
2023/05/05 07:42:53;;;;;;;4.50;1.00;;;;;;;;;;5042613;28;20082;-65
2023/05/05 07:45:21;;;;;;;2.45;1.92;;;;;;;;;;5042565;28;20494;-66
2023/05/05 07:47:49;;;;;;;2.00;1.08;;;;;;;;;;5042157;28;20041;-65
2023/05/05 07:50:18;;;;;;;1.75;1.10;;;;;;;;;;5041189;28;20114;-64
2023/05/05 07:52:46;;;;;;;2.95;1.05;;;;;;;;;;5037879;28;20048;-64
2023/05/05 07:55:26;;;;;;;2.20;1.20;;;;;;;;;;5043677;28;20516;-66
2023/05/05 07:57:56;;;;;;;4.28;1.60;;;;;;;;;;5041171;28;20056;-66
2023/05/05 08:00:24;;;;;;;1.67;1.23;;;;;;;;;;5040532;28;20516;-66
2023/05/05 08:02:52;;;;;;;1.45;1.10;;;;;;;;;;5040876;28;20049;-66
2023/05/05 08:05:21;;;;;;;2.55;1.58;;;;;;;;;;5039445;28;20111;-66
2023/05/05 08:07:49;;;;;;;1.65;0.90;;;;;;;;;;5041396;28;20049;-65
2023/05/05 08:10:18;;;;;;;3.47;1.63;;;;;;;;;;5043183;28;21107;-66
2023/05/05 08:12:46;;;;;;;1.00;0.90;;;;;;;;;;5044602;28;20045;-65
2023/05/05 08:15:16;;;;;;;2.38;1.10;;;;;;;;;;5039218;28;20053;-65
2023/05/05 08:17:46;;;;;;;2.53;1.10;;;;;;;;;;5043222;28;20055;-64
2023/05/05 08:20:14;;;;;;;1.77;1.45;;;;;;;;;;5042037;28;20446;-65
2023/05/05 08:22:43;;;;;;;3.08;0.90;;;;;;;;;;5043030;28;20140;-65
2023/05/05 08:25:11;;;;;;;1.90;1.25;;;;;;;;;;5041260;28;20068;-66
2023/05/05 08:27:40;;;;;;;1.65;0.93;;;;;;;;;;5037842;28;20386;-65
2023/05/05 08:30:09;;;;;;;2.20;1.45;;;;;;;;;;5040143;28;20045;-65
2023/05/05 08:32:39;;;;;;;2.40;1.20;;;;;;;;;;5043197;28;20051;-64
2023/05/05 08:35:08;;;;;;;1.90;1.17;;;;;;;;;;5042224;28;20053;-66
2023/05/05 08:37:37;;;;;;;2.60;1.23;;;;;;;;;;5044806;28;20060;-66
2023/05/05 08:40:05;;;;;;;1.27;0.85;;;;;;;;;;5042853;28;20045;-66
2023/05/05 08:42:34;;;;;;;3.22;1.58;;;;;;;;;;5043511;28;20136;-64
2023/05/05 08:45:06;;;;;;;3.78;1.17;;;;;;;;;;5040185;28;20045;-65
2023/05/05 08:47:35;;;;;;;3.55;1.20;;;;;;;;;;5046948;28;20056;-65
2023/05/05 08:50:06;;;;;;;4.57;1.60;;;;;;;;;;5047338;28;20061;-66
2023/05/05 08:52:38;;;;;;;2.15;1.17;;;;;;;;;;5045094;28;20056;-64
2023/05/05 08:55:13;;;;;;;1.65;0.90;;;;;;;;;;5047019;28;20067;-65
2023/05/05 08:57:44;;;;;;;3.22;1.33;;;;;;;;;;5046496;28;20076;-66
2023/05/05 09:00:15;;;;;;;2.08;0.88;;;;;;;;;;5042569;28;20413;-64
2023/05/05 09:02:44;;;;;;;3.78;1.48;;;;;;;;;;5044835;28;20052;-63
2023/05/05 09:05:13;;;;;;;1.52;1.10;;;;;;;;;;5044664;28;20080;-63
2023/05/05 09:07:42;;;;;;;1.52;0.93;;;;;;;;;;5044501;28;20049;-63
2023/05/05 09:10:12;;;;;;;1.63;1.08;;;;;;;;;;5040245;28;20049;-63
2023/05/05 09:12:40;;;;;;;1.77;1.10;;;;;;;;;;5042229;28;20055;-63
2023/05/05 09:15:10;;;;;;;1.98;1.48;;;;;;;;;;5045410;28;20504;-63
2023/05/05 09:17:38;;;;;;;2.58;1.45;;;;;;;;;;5045029;28;20481;-64
2023/05/05 09:20:07;;;;;;;1.98;1.40;;;;;;;;;;5043554;28;20263;-64
2023/05/05 09:22:38;;;;;;;4.03;1.38;;;;;;;;;;5042770;28;20057;-62
2023/05/05 09:25:07;;;;;;;3.63;1.20;;;;;;;;;;5044439;28;20136;-64
2023/05/05 09:27:39;;;;;;;2.38;1.17;;;;;;;;;;5040021;28;20063;-63
2023/05/05 09:30:08;;;;;;;1.90;1.20;;;;;;;;;;5042972;28;20079;-63
2023/05/05 09:32:44;;;;;;;1.98;1.05;;;;;;;;;;5043544;28;20430;-64
2023/05/05 09:35:12;;;;;;;1.98;0.98;;;;;;;;;;5044642;28;20055;-63
2023/05/05 09:37:42;;;;;;;3.45;1.42;;;;;;;;;;5045710;28;20446;-64
2023/05/05 09:40:11;;;;;;;1.27;0.98;;;;;;;;;;5041586;28;20413;-64
2023/05/05 09:42:40;;;;;;;3.58;1.30;;;;;;;;;;5042655;28;20075;-64
2023/05/05 09:45:24;;;;;;;4.22;1.20;;;;;;;;;;5042400;28;20406;-63
2023/05/05 09:47:53;;;;;;;2.40;1.05;;;;;;;;;;5047356;28;20045;-63
2023/05/05 09:50:29;;;;;;;0.70;0.70;;;;;;;;;;5040663;28;20050;-63
2023/05/05 09:53:00;;;;;;;1.98;1.35;;;;;;;;;;5041555;28;20055;-64
2023/05/05 09:55:29;;;;;;;1.20;0.80;;;;;;;;;;5043146;28;20049;-63
2023/05/05 09:57:58;;;;;;;2.03;1.02;;;;;;;;;;5043083;28;20049;-64
2023/05/05 10:00:38;;;;;;;3.95;1.15;;;;;;;;;;5042328;28;20049;-64
2023/05/05 10:03:07;;;;;;;1.02;0.77;;;;;;;;;;5042902;28;20069;-64
2023/05/05 10:05:46;;;;;;;2.42;1.02;;;;;;;;;;5041772;28;20057;-63
2023/05/05 10:08:17;;;;;;;4.63;1.17;;;;;;;;;;5040948;28;20528;-64
2023/05/05 10:10:51;;;;;;;3.78;1.15;;;;;;;;;;5044160;28;20488;-63
2023/05/05 10:13:20;;;;;;;1.88;1.00;;;;;;;;;;5043556;28;20505;-63
2023/05/05 10:15:50;;;;;;;2.75;1.25;;;;;;;;;;5043056;28;20047;-64
2023/05/05 10:18:21;;;;;;;1.90;1.17;;;;;;;;;;5042512;28;20144;-63
2023/05/05 10:20:53;;;;;;;4.63;0.98;;;;;;;;;;5046572;28;20098;-64
2023/05/05 10:23:24;;;;;;;2.03;0.98;;;;;;;;;;5044960;28;20080;-64
2023/05/05 10:25:55;;;;;;;1.50;0.90;;;;;;;;;;5044037;28;20140;-64
2023/05/05 10:28:25;;;;;;;1.52;0.95;;;;;;;;;;5044940;28;20049;-64
2023/05/05 10:30:55;;;;;;;1.75;0.90;;;;;;;;;;5044828;28;20055;-64
2023/05/05 10:33:26;;;;;;;1.02;0.65;;;;;;;;;;5038912;28;20453;-64
2023/05/05 10:36:01;;;;;;;1.73;1.20;;;;;;;;;;5041292;28;20395;-64
2023/05/05 10:38:32;;;;;;;2.17;0.95;;;;;;;;;;5044268;28;20116;-63
2023/05/05 10:41:00;;;;;;;1.20;0.80;;;;;;;;;;5044099;28;20136;-64
2023/05/05 10:43:30;;;;;;;1.10;0.80;;;;;;;;;;5043206;28;20057;-64
2023/05/05 10:45:59;;;;;;;0.88;0.75;;;;;;;;;;5041194;28;20049;-63
2023/05/05 10:48:31;;;;;;;1.65;1.00;;;;;;;;;;5040554;28;20494;-64
2023/05/05 10:51:04;;;;;;;2.03;1.20;;;;;;;;;;5042112;28;20080;-63
2023/05/05 10:53:37;;;;;;;1.35;0.90;;;;;;;;;;5042677;28;20049;-63
2023/05/05 10:56:09;;;;;;;1.48;0.82;;;;;;;;;;5044164;28;20135;-63
2023/05/05 10:58:39;;;;;;;5.63;0.93;;;;;;;;;;5043389;28;20398;-63
2023/05/05 11:01:30;;;;;;;3.88;0.93;;;;;;;;;;5041680;28;20671;-63
2023/05/05 11:04:18;;;;;;;2.10;1.00;;;;;;;;;;5042339;28;20053;-64
2023/05/05 11:07:17;;;;;;;4.43;1.23;;;;;;;;;;5042430;28;20166;-63
2023/05/05 11:09:56;;;;;;;1.63;1.13;;;;;;;;;;4978368;28;20140;-63
2023/05/05 11:12:24;;;;;;;5.18;1.00;;;;;;;;;;5035518;28;20044;-64
2023/05/05 11:15:10;;;;;;;3.60;1.23;;;;;;;;;;5044251;28;20037;-63
2023/05/05 11:17:45;;;;;;;1.38;0.82;;;;;;;;;;5011986;28;20374;-64
2023/05/05 11:20:14;;;;;;;1.58;0.80;;;;;;;;;;5046463;28;20260;-64
2023/05/05 11:23:00;;;;;;;1.08;0.98;;;;;;;;;;5044157;28;20131;-63
2023/05/05 11:25:46;;;;;;;2.00;0.95;;;;;;;;;;5043035;28;20080;-64
2023/05/05 11:28:17;;;;;;;2.63;1.23;;;;;;;;;;5041875;28;20512;-64
2023/05/05 11:31:06;;;;;;;1.58;1.08;;;;;;;;;;5045727;28;20044;-64
2023/05/05 11:33:35;;;;;;;2.35;1.27;;;;;;;;;;5043379;28;20140;-64
2023/05/05 11:36:05;;;;;;;2.13;1.23;;;;;;;;;;5043051;28;20090;-63
2023/05/05 11:38:41;;;;;;;2.40;1.02;;;;;;;;;;5041367;28;20527;-64
2023/05/05 11:41:13;;;;;;;0.70;0.70;;;;;;;;;;5040532;28;20140;-63
2023/05/05 11:43:43;;;;;;;1.30;1.10;;;;;;;;;;5043692;28;20053;-64
2023/05/05 11:46:11;;;;;;;1.67;1.10;;;;;;;;;;5034171;28;20377;-64
2023/05/05 11:48:46;;;;;;;2.63;1.10;;;;;;;;;;5040291;28;20064;-64
2023/05/05 11:51:15;;;;;;;;;;;;;;;;;;5042038;28;20057;-63
2023/05/05 11:53:43;;;;;;;1.60;1.10;;;;;;;;;;5043317;28;20288;-63
2023/05/05 11:56:17;;;;;;;1.45;1.02;;;;;;;;;;5038353;28;20681;-63
2023/05/05 11:58:47;;;;;;;2.17;1.27;;;;;;;;;;5042167;28;20494;-64
2023/05/05 12:01:16;;;;;;;1.98;1.25;;;;;;;;;;5037761;28;20045;-64
2023/05/05 12:03:44;;;;;;;3.67;1.30;;;;;;;;;;5039514;28;20053;-63
2023/05/05 12:06:13;;;;;;;1.63;0.93;;;;;;;;;;5042993;28;20481;-63
2023/05/05 12:08:42;;;;;;;2.33;1.00;;;;;;;;;;5043886;28;20045;-64
2023/05/05 12:11:11;;;;;;;1.75;0.98;;;;;;;;;;5043394;28;20055;-64
2023/05/05 12:13:40;;;;;;;2.45;1.40;;;;;;;;;;5043812;28;20049;-63
2023/05/05 12:16:10;;;;;;;1.75;1.08;;;;;;;;;;5042045;28;20055;-63
2023/05/05 12:18:39;;;;;;;1.58;1.30;;;;;;;;;;5042738;28;20132;-63
2023/05/05 12:21:14;;;;;;;1.40;0.82;;;;;;;;;;5039089;28;20112;-63
2023/05/05 12:23:42;;;;;;;1.48;1.00;;;;;;;;;;5041551;28;20476;-63
2023/05/05 12:26:25;;;;;;;1.25;0.90;;;;;;;;;;5039110;28;20049;-64
2023/05/05 12:28:53;;;;;;;1.92;1.13;;;;;;;;;;5042202;28;20120;-63
2023/05/05 12:31:23;;;;;;;2.10;1.27;;;;;;;;;;5040793;28;20733;-63
2023/05/05 12:33:52;;;;;;;1.35;1.15;;;;;;;;;;5042192;28;20547;-63
2023/05/05 12:36:21;;;;;;;2.10;1.17;;;;;;;;;;5040895;28;20052;-63
2023/05/05 12:38:50;;;;;;;1.75;1.08;;;;;;;;;;5041173;28;20509;-63
2023/05/05 12:41:20;;;;;;;1.90;1.13;;;;;;;;;;5042113;28;20037;-64
2023/05/05 12:43:48;;;;;;;1.10;0.75;;;;;;;;;;5040215;28;20132;-63
2023/05/05 12:46:16;;;;;;;4.85;0.90;;;;;;;;;;5035192;28;20477;-63
2023/05/05 12:48:46;;;;;;;3.13;1.30;;;;;;;;;;5041279;28;20045;-64
2023/05/05 12:51:19;;;;;;;2.38;1.50;;;;;;;;;;5042131;28;20547;-64
2023/05/05 12:53:48;;;;;;;1.70;1.13;;;;;;;;;;5041542;28;20044;-62
2023/05/05 12:56:32;;;;;;;2.78;1.00;;;;;;;;;;5036876;28;20147;-63
2023/05/05 12:59:01;;;;;;;0.90;0.68;;;;;;;;;;5039088;28;20041;-63
2023/05/05 13:01:30;;;;;;;0.90;0.77;;;;;;;;;;5044150;28;20124;-63
2023/05/05 13:04:13;;;;;;;0.73;0.65;;;;;;;;;;5043780;28;20045;-63
2023/05/05 13:06:42;;;;;;;1.35;1.08;;;;;;;;;;5046898;28;20067;-63
2023/05/05 13:09:10;;;;;;;3.20;0.90;;;;;;;;;;5045238;28;20107;-64
2023/05/05 13:11:39;;;;;;;2.20;1.08;;;;;;;;;;5048373;28;20052;-64
2023/05/05 13:14:08;;;;;;;1.38;0.88;;;;;;;;;;5043879;28;20045;-63
2023/05/05 13:16:36;;;;;;;2.03;1.20;;;;;;;;;;5040597;28;20565;-63
2023/05/05 13:19:05;;;;;;;1.80;1.00;;;;;;;;;;5044580;28;20135;-63
2023/05/05 13:21:34;;;;;;;3.25;1.00;;;;;;;;;;5043924;28;20052;-63
2023/05/05 13:24:03;;;;;;;2.65;1.80;;;;;;;;;;5042689;28;20055;-64
2023/05/05 13:26:50;;;;;;;1.02;0.75;;;;;;;;;;5044829;28;20497;-63
2023/05/05 13:29:19;;;;;;;1.85;1.00;;;;;;;;;;5049496;28;20049;-63
2023/05/05 13:31:47;;;;;;;1.75;1.20;;;;;;;;;;5043625;28;20454;-63
2023/05/05 13:34:16;;;;;;;2.70;1.15;;;;;;;;;;5047604;28;20053;-64
2023/05/05 13:36:46;;;;;;;1.80;1.10;;;;;;;;;;5049293;28;20048;-64
2023/05/05 13:39:14;;;;;;;1.65;0.95;;;;;;;;;;5044735;28;20041;-63
2023/05/05 13:41:43;;;;;;;1.35;0.90;;;;;;;;;;5046697;28;20045;-62
2023/05/05 13:44:12;;;;;;;1.80;1.23;;;;;;;;;;5046750;28;20420;-63
2023/05/05 13:46:41;;;;;;;2.47;1.35;;;;;;;;;;5042508;28;20064;-63
2023/05/05 13:49:09;;;;;;;2.08;1.02;;;;;;;;;;5043682;28;20049;-64
2023/05/05 13:51:38;;;;;;;2.40;1.10;;;;;;;;;;5047808;28;20041;-63
2023/05/05 13:54:08;;;;;;;1.63;1.02;;;;;;;;;;5047829;28;20045;-62
2023/05/05 13:56:36;;;;;;;2.58;0.95;;;;;;;;;;5045491;28;20158;-63
2023/05/05 13:59:05;;;;;;;0.70;0.70;;;;;;;;;;5045471;28;20048;-63
2023/05/05 14:01:33;;;;;;;6.25;1.05;;;;;;;;;;5045387;28;20560;-63
2023/05/05 14:04:02;;;;;;;1.83;1.08;;;;;;;;;;5046649;28;20099;-63
2023/05/05 14:06:34;;;;;;;5.30;1.00;;;;;;;;;;5043335;28;20045;-63
2023/05/05 14:09:04;;;;;;;1.80;1.00;;;;;;;;;;5045241;28;20049;-63
2023/05/05 14:11:34;;;;;;;1.63;1.00;;;;;;;;;;5045420;28;20137;-63
2023/05/05 14:14:03;;;;;;;1.52;1.05;;;;;;;;;;5046998;28;20472;-63
2023/05/05 14:16:31;;;;;;;2.25;1.10;;;;;;;;;;5044978;28;20494;-63
2023/05/05 14:19:00;;;;;;;1.73;0.90;;;;;;;;;;5050010;28;20501;-62
2023/05/05 14:21:28;;;;;;;1.55;1.27;;;;;;;;;;5046263;28;20045;-64
2023/05/05 14:23:57;;;;;;;2.22;1.33;;;;;;;;;;5045650;28;20051;-63
2023/05/05 14:26:26;;;;;;;6.32;1.20;;;;;;;;;;5047572;28;20440;-64
2023/05/05 14:28:55;;;;;;;1.95;1.30;;;;;;;;;;5041570;28;20083;-63
2023/05/05 14:31:24;;;;;;;1.67;0.65;;;;;;;;;;5047193;28;20087;-64
2023/05/05 14:33:52;;;;;;;1.67;1.10;;;;;;;;;;5049008;28;20402;-64
2023/05/05 14:36:21;;;;;;;2.25;1.48;;;;;;;;;;5048587;28;20056;-64
2023/05/05 14:38:49;;;;;;;1.77;1.35;;;;;;;;;;5042114;28;20048;-64
2023/05/05 14:41:17;;;;;;;4.03;1.20;;;;;;;;;;5045370;28;20045;-64
2023/05/05 14:43:46;;;;;;;3.88;1.80;;;;;;;;;;5040621;28;20056;-64
2023/05/05 14:46:15;;;;;;;2.17;1.63;;;;;;;;;;5046855;28;20111;-64
2023/05/05 14:48:45;;;;;;;1.90;1.08;;;;;;;;;;5045660;28;20517;-65
2023/05/05 14:51:14;;;;;;;3.80;1.90;;;;;;;;;;5048116;28;20132;-64
2023/05/05 14:53:43;;;;;;;4.82;1.52;;;;;;;;;;5048052;28;20402;-65
2023/05/05 14:56:11;;;;;;;3.20;1.58;;;;;;;;;;5048586;28;20135;-64
2023/05/05 14:58:39;;;;;;;2.50;1.35;;;;;;;;;;5048471;28;20045;-63
2023/05/05 15:01:08;;;;;;;2.72;1.60;;;;;;;;;;5046874;28;20041;-66